createdAt,value
2022-10-17T00:02:00.656Z,70.75
2022-10-17T00:04:27.254Z,69.95
2022-10-17T00:06:53.891Z,70.72
2022-10-17T00:09:20.528Z,70.53
2022-10-17T00:11:47.207Z,70.69
2022-10-17T00:14:13.861Z,71.14
2022-10-17T00:16:40.506Z,70.37
2022-10-17T00:19:07.094Z,69.71
2022-10-17T00:21:33.934Z,70.40
2022-10-17T00:24:00.968Z,71.29
2022-10-17T00:26:29.676Z,71.04
2022-10-17T00:28:56.888Z,71.38
2022-10-17T00:31:24.005Z,71.41
2022-10-17T00:33:51.242Z,71.03
2022-10-17T00:36:22.481Z,70.36
2022-10-17T00:38:50.800Z,71.63
2022-10-17T00:41:18.777Z,71.33
2022-10-17T00:43:52.738Z,71.15
2022-10-17T00:46:19.821Z,71.46
2022-10-17T00:48:47.085Z,71.68
2022-10-17T00:51:15.029Z,71.07
2022-10-17T00:53:41.791Z,71.58
2022-10-17T00:56:08.505Z,71.46
2022-10-17T00:58:35.065Z,72.05
2022-10-17T01:01:01.757Z,71.58
2022-10-17T01:03:28.420Z,70.75
2022-10-17T01:05:55.513Z,70.64
2022-10-17T01:08:22.150Z,70.71
2022-10-17T01:11:10.300Z,71.85
2022-10-17T01:13:40.678Z,72.51
2022-10-17T01:16:25.859Z,71.47
2022-10-17T01:18:58.574Z,71.01
2022-10-17T01:21:43.825Z,71.12
2022-10-17T01:24:10.433Z,72.81
2022-10-17T01:26:44.433Z,71.75
2022-10-17T01:29:30.479Z,71.79
2022-10-17T01:31:59.853Z,71.60
2022-10-17T01:34:45.421Z,71.54
2022-10-17T01:37:30.465Z,71.42
2022-10-17T01:40:05.983Z,72.43
2022-10-17T01:42:41.627Z,72.65
2022-10-17T01:45:08.186Z,71.69
2022-10-17T01:47:35.188Z,72.61
2022-10-17T01:50:07.941Z,72.17
2022-10-17T01:52:41.581Z,71.93
2022-10-17T01:55:16.862Z,73.33
2022-10-17T01:57:49.923Z,72.25
2022-10-17T02:00:21.104Z,72.15
2022-10-17T02:02:49.529Z,74.16
2022-10-17T02:05:17.584Z,73.49
2022-10-17T02:07:44.294Z,73.85
2022-10-17T02:10:19.180Z,73.14
2022-10-17T02:12:50.693Z,72.79
2022-10-17T02:15:28.545Z,74.51
2022-10-17T02:18:08.004Z,74.82
2022-10-17T02:20:34.569Z,73.19
2022-10-17T02:23:07.097Z,74.28
2022-10-17T02:25:42.637Z,73.39
2022-10-17T02:28:09.254Z,74.30
2022-10-17T02:30:44.792Z,73.00
2022-10-17T02:33:14.458Z,74.12
2022-10-17T02:35:43.512Z,74.39
2022-10-17T02:38:11.022Z,75.81
2022-10-17T02:40:38.366Z,75.41
2022-10-17T02:43:05.076Z,75.17
2022-10-17T02:45:36.019Z,76.06
2022-10-17T02:48:04.184Z,75.18
2022-10-17T02:50:41.669Z,76.53
2022-10-17T02:53:28.508Z,76.32
2022-10-17T02:55:59.209Z,76.06
2022-10-17T02:58:29.111Z,76.09
2022-10-17T03:00:55.880Z,75.31
2022-10-17T03:03:32.785Z,75.17
2022-10-17T03:05:59.336Z,75.87
2022-10-17T03:08:26.176Z,75.33
2022-10-17T03:10:52.908Z,76.01
2022-10-17T03:13:19.501Z,75.36
2022-10-17T03:15:46.376Z,77.05
2022-10-17T03:18:13.245Z,77.85
2022-10-17T03:20:39.908Z,76.33
2022-10-17T03:23:06.513Z,77.65
2022-10-17T03:25:33.120Z,76.54
2022-10-17T03:28:02.885Z,76.92
2022-10-17T03:30:29.581Z,76.68
2022-10-17T03:32:57.921Z,75.67
2022-10-17T03:35:24.798Z,75.84
2022-10-17T03:37:51.396Z,75.81
2022-10-17T03:40:18.018Z,76.12
2022-10-17T03:42:44.615Z,76.34
2022-10-17T03:45:11.216Z,76.16
2022-10-17T03:47:37.880Z,76.15
2022-10-17T03:50:04.710Z,76.92
2022-10-17T03:52:31.419Z,76.39
2022-10-17T03:54:57.998Z,76.12
2022-10-17T03:57:24.602Z,76.40
2022-10-17T03:59:52.336Z,76.93
2022-10-17T04:02:18.965Z,76.99
2022-10-17T04:04:45.621Z,77.70
2022-10-17T04:07:12.273Z,76.69
2022-10-17T04:09:38.806Z,77.09
2022-10-17T04:12:05.548Z,77.03
2022-10-17T04:14:32.171Z,77.90
2022-10-17T04:16:58.758Z,77.11
2022-10-17T04:19:25.992Z,76.74
2022-10-17T04:21:52.689Z,76.58
2022-10-17T04:24:19.564Z,77.79
2022-10-17T04:26:49.025Z,77.41
2022-10-17T04:29:15.663Z,76.66
2022-10-17T04:31:42.199Z,76.73
2022-10-17T04:34:08.787Z,76.96
2022-10-17T04:36:35.329Z,76.86
2022-10-17T04:39:03.570Z,76.82
2022-10-17T04:41:30.252Z,76.87
2022-10-17T04:43:57.161Z,76.59
2022-10-17T04:46:23.757Z,76.58
2022-10-17T04:48:50.343Z,77.65
2022-10-17T04:51:20.689Z,77.29
2022-10-17T04:53:49.958Z,76.90
2022-10-17T04:56:21.774Z,77.68
2022-10-17T04:58:48.926Z,76.81
2022-10-17T05:01:17.334Z,76.69
2022-10-17T05:03:44.458Z,77.41
2022-10-17T05:06:12.414Z,77.84
2022-10-17T05:08:39.181Z,76.90
2022-10-17T05:11:06.260Z,77.44
2022-10-17T05:13:33.026Z,76.71
2022-10-17T05:16:00.372Z,76.75
2022-10-17T05:18:27.740Z,76.89
2022-10-17T05:20:54.362Z,76.80
2022-10-17T05:23:20.958Z,77.14
2022-10-17T05:25:47.562Z,77.23
2022-10-17T05:28:14.130Z,76.55
2022-10-17T05:30:40.832Z,76.28
2022-10-17T05:33:07.406Z,76.22
2022-10-17T05:35:34.024Z,76.20
2022-10-17T05:38:00.656Z,75.83
2022-10-17T05:40:27.466Z,75.70
2022-10-17T05:42:54.097Z,75.71
2022-10-17T05:45:20.708Z,75.46
2022-10-17T05:47:47.381Z,75.68
2022-10-17T05:50:14.015Z,75.38
2022-10-17T05:52:42.874Z,75.19
2022-10-17T05:55:11.799Z,75.00
2022-10-17T05:57:38.877Z,74.70
2022-10-17T06:00:06.095Z,74.92
2022-10-17T06:02:33.295Z,74.71
2022-10-17T06:05:00.184Z,74.62
2022-10-17T06:07:26.727Z,74.36
2022-10-17T06:09:53.372Z,74.39
2022-10-17T06:12:19.912Z,73.94
2022-10-17T06:14:46.452Z,73.45
2022-10-17T06:17:16.034Z,73.72
2022-10-17T06:19:44.842Z,73.81
2022-10-17T06:22:11.868Z,73.61
2022-10-17T06:24:38.461Z,73.57
2022-10-17T06:27:09.441Z,73.50
2022-10-17T06:29:39.114Z,73.46
2022-10-17T06:32:06.911Z,73.27
2022-10-17T06:34:35.280Z,72.95
2022-10-17T06:37:01.915Z,72.80
2022-10-17T06:39:33.813Z,72.95
2022-10-17T06:42:01.077Z,72.77
2022-10-17T06:44:31.582Z,72.70
2022-10-17T06:46:58.974Z,72.38
2022-10-17T06:49:25.810Z,72.71
2022-10-17T06:51:52.356Z,72.60
2022-10-17T06:54:18.969Z,72.16
2022-10-17T06:56:45.529Z,71.92
2022-10-17T06:59:12.150Z,71.71
2022-10-17T07:01:40.705Z,71.71
2022-10-17T07:04:09.800Z,71.55
2022-10-17T07:06:36.476Z,71.62
2022-10-17T07:09:03.390Z,71.11
2022-10-17T07:11:29.976Z,70.57
2022-10-17T07:13:56.505Z,70.12
2022-10-17T07:16:23.131Z,70.34
2022-10-17T07:18:50.773Z,69.58
2022-10-17T07:21:17.326Z,69.72
2022-10-17T07:23:43.893Z,69.56
2022-10-17T07:26:11.960Z,69.30
2022-10-17T07:28:40.332Z,69.04
2022-10-17T07:31:08.202Z,69.69
2022-10-17T07:33:35.041Z,70.15
2022-10-17T07:36:01.972Z,69.83
2022-10-17T07:38:28.882Z,70.01
2022-10-17T07:40:59.109Z,70.11
2022-10-17T07:43:26.269Z,70.14
2022-10-17T07:45:53.283Z,69.94
2022-10-17T07:48:20.241Z,69.46
2022-10-17T07:50:46.995Z,69.87
2022-10-17T07:53:13.737Z,70.07
2022-10-17T07:55:41.022Z,70.05
2022-10-17T07:58:08.726Z,71.64
2022-10-17T08:00:36.452Z,71.39
2022-10-17T08:03:03.764Z,73.38
2022-10-17T08:05:30.541Z,73.56
2022-10-17T08:07:57.465Z,74.06
2022-10-17T08:10:28.385Z,75.39
2022-10-17T08:12:55.315Z,75.11
2022-10-17T08:15:22.149Z,76.56
2022-10-17T08:17:48.968Z,76.65
2022-10-17T08:20:15.873Z,75.17
2022-10-17T08:22:42.424Z,77.13
2022-10-17T08:25:09.726Z,76.35
2022-10-17T08:27:36.347Z,77.44
2022-10-17T08:30:02.901Z,75.67
2022-10-17T08:32:31.011Z,76.66
2022-10-17T08:34:57.864Z,75.85
2022-10-17T08:37:24.485Z,77.00
2022-10-17T08:39:51.085Z,76.82
2022-10-17T08:42:20.602Z,76.85
2022-10-17T08:44:53.023Z,76.60
2022-10-17T08:47:38.022Z,76.38
2022-10-17T08:50:06.536Z,76.56
2022-10-17T08:52:46.684Z,76.74
2022-10-17T08:55:31.952Z,76.29
2022-10-17T08:57:58.545Z,77.21
2022-10-17T09:00:25.516Z,77.14
2022-10-17T09:03:14.659Z,80.79
2022-10-17T09:05:50.026Z,81.47
2022-10-17T09:08:16.597Z,82.54
2022-10-17T09:10:52.003Z,85.24
2022-10-17T09:16:08.641Z,91.54
2022-10-17T09:18:38.156Z,93.19
2022-10-17T09:21:40.435Z,94.74
2022-10-17T09:24:15.826Z,94.75
2022-10-17T09:26:44.400Z,100.00
2022-10-17T09:29:17.211Z,100.00
2022-10-17T09:32:03.691Z,100.00
2022-10-17T09:34:32.299Z,100.00
2022-10-17T09:37:00.261Z,100.00
2022-10-17T09:39:29.206Z,100.00
2022-10-17T09:41:57.276Z,100.00
2022-10-17T09:44:25.036Z,100.00
2022-10-17T09:47:03.716Z,100.00
2022-10-17T09:49:34.703Z,100.00
2022-10-17T09:52:02.936Z,100.00
2022-10-17T09:54:36.386Z,100.00
2022-10-17T09:57:04.302Z,100.00
2022-10-17T09:59:32.249Z,100.00
2022-10-17T10:02:13.943Z,100.00
2022-10-17T10:05:09.032Z,100.00
2022-10-17T10:07:37.804Z,100.00
2022-10-17T10:10:06.501Z,100.00
2022-10-17T10:12:34.626Z,100.00
2022-10-17T10:15:01.325Z,100.00
2022-10-17T10:17:29.818Z,100.00
2022-10-17T10:19:56.529Z,100.00
2022-10-17T10:22:25.704Z,100.00
2022-10-17T10:25:10.960Z,100.00
2022-10-17T10:27:39.982Z,100.00
2022-10-17T10:30:07.193Z,100.00
2022-10-17T10:32:35.355Z,100.00
2022-10-17T10:35:01.998Z,100.00
2022-10-17T10:37:30.171Z,100.00
2022-10-17T10:40:01.387Z,100.00
2022-10-17T10:42:33.071Z,100.00
2022-10-17T10:45:42.912Z,100.00
2022-10-17T10:48:18.448Z,100.00
2022-10-17T10:50:47.099Z,100.00
2022-10-17T10:53:30.756Z,100.00
2022-10-17T10:56:11.090Z,100.00
2022-10-17T10:58:42.068Z,100.00
2022-10-17T11:01:15.089Z,100.00
2022-10-17T11:03:50.110Z,100.00
2022-10-17T11:06:20.087Z,100.00
2022-10-17T11:09:03.063Z,100.00
2022-10-17T11:11:34.495Z,100.00
2022-10-17T11:14:08.072Z,100.00
2022-10-17T11:16:53.963Z,100.00
2022-10-17T11:19:20.496Z,100.00
2022-10-17T11:21:48.411Z,100.00
2022-10-17T11:24:24.873Z,100.00
2022-10-17T11:26:58.714Z,100.00
2022-10-17T11:29:29.262Z,100.00
2022-10-17T11:31:57.522Z,100.00
2022-10-17T11:34:29.475Z,100.00
2022-10-17T11:37:02.670Z,100.00
2022-10-17T11:39:51.720Z,100.00
2022-10-17T11:42:21.115Z,100.00
2022-10-17T11:44:50.584Z,100.00
2022-10-17T11:47:26.575Z,100.00
2022-10-17T11:49:57.457Z,100.00
2022-10-17T11:52:55.957Z,100.00
2022-10-17T11:55:24.129Z,100.00
2022-10-17T11:57:56.954Z,100.00
2022-10-17T12:00:26.544Z,100.00
2022-10-17T12:03:11.640Z,100.00
2022-10-17T12:05:57.225Z,100.00
2022-10-17T12:08:42.571Z,100.00
2022-10-17T12:11:34.537Z,100.00
2022-10-17T12:14:05.929Z,100.00
2022-10-17T12:16:35.593Z,100.00
2022-10-17T12:19:02.248Z,100.00
2022-10-17T12:21:31.477Z,100.00
2022-10-17T12:23:58.843Z,100.00
2022-10-17T12:26:26.611Z,100.00
2022-10-17T12:28:53.481Z,100.00
2022-10-17T12:31:21.741Z,100.00
2022-10-17T12:33:49.954Z,100.00
2022-10-17T12:36:22.140Z,100.00
2022-10-17T12:38:50.299Z,100.00
2022-10-17T12:41:17.732Z,100.00
2022-10-17T12:43:45.760Z,100.00
2022-10-17T12:46:12.512Z,100.00
2022-10-17T12:48:42.042Z,100.00
2022-10-17T12:51:34.388Z,100.00
2022-10-17T12:54:00.809Z,100.00
2022-10-17T12:56:46.711Z,100.00
2022-10-17T12:59:16.706Z,100.00
2022-10-17T13:01:48.463Z,100.00
2022-10-17T13:04:15.541Z,100.00
2022-10-17T13:06:46.463Z,100.00
2022-10-17T13:09:25.310Z,100.00
2022-10-17T13:11:52.691Z,100.00
2022-10-17T13:14:20.881Z,100.00
2022-10-17T13:16:55.005Z,100.00
2022-10-17T13:19:23.862Z,100.00
2022-10-17T13:21:56.042Z,100.00
2022-10-17T13:24:28.674Z,100.00
2022-10-17T13:26:55.239Z,100.00
2022-10-17T13:29:23.473Z,100.00
2022-10-17T13:31:54.699Z,100.00
2022-10-17T13:34:22.746Z,100.00
2022-10-17T13:36:52.511Z,100.00
2022-10-17T13:39:32.355Z,100.00
2022-10-17T13:42:05.514Z,100.00
2022-10-17T13:44:33.708Z,100.00
2022-10-17T13:47:00.695Z,100.00
2022-10-17T13:49:41.105Z,100.00
2022-10-17T13:52:15.234Z,100.00
2022-10-17T13:54:42.726Z,100.00
2022-10-17T13:57:23.764Z,100.00
2022-10-17T13:59:51.916Z,100.00
2022-10-17T14:02:26.793Z,100.00
2022-10-17T14:05:16.768Z,100.00
2022-10-17T14:10:41.291Z,100.00
2022-10-17T14:13:17.706Z,100.00
2022-10-17T14:15:45.941Z,100.00
2022-10-17T14:18:20.811Z,100.00
2022-10-17T14:21:29.191Z,100.00
2022-10-17T14:23:39.067Z,100.00
2022-10-17T14:26:06.271Z,100.00
2022-10-17T14:28:33.674Z,100.00
2022-10-17T14:31:17.351Z,100.00
2022-10-17T14:33:48.246Z,100.00
2022-10-17T14:36:17.500Z,100.00
2022-10-17T14:38:50.183Z,100.00
2022-10-17T14:44:18.889Z,100.00
2022-10-17T14:46:50.549Z,100.00
2022-10-17T14:49:24.343Z,100.00
2022-10-17T14:52:15.251Z,100.00
2022-10-17T14:54:48.871Z,100.00
2022-10-17T14:57:17.589Z,100.00
2022-10-17T14:59:59.662Z,100.00
2022-10-17T15:02:27.485Z,100.00
2022-10-17T15:04:54.584Z,100.00
2022-10-17T15:07:21.558Z,100.00
2022-10-17T15:09:48.971Z,100.00
2022-10-17T15:12:17.312Z,100.00
2022-10-17T15:14:44.501Z,100.00
2022-10-17T15:17:26.402Z,100.00
2022-10-17T15:19:53.298Z,100.00
2022-10-17T15:22:19.925Z,100.00
2022-10-17T15:24:46.653Z,100.00
2022-10-17T15:27:21.367Z,100.00
2022-10-17T15:29:48.124Z,100.00
2022-10-17T15:32:14.773Z,100.00
2022-10-17T15:34:41.737Z,100.00
2022-10-17T15:37:16.472Z,100.00
2022-10-17T15:39:43.115Z,100.00
2022-10-17T15:42:11.940Z,100.00
2022-10-17T15:44:38.525Z,100.00
2022-10-17T15:47:05.573Z,100.00
2022-10-17T15:49:33.965Z,100.00
2022-10-17T15:52:00.537Z,100.00
2022-10-17T15:54:27.102Z,100.00
2022-10-17T15:56:55.013Z,100.00
2022-10-17T15:59:25.089Z,100.00
2022-10-17T16:01:51.739Z,100.00
2022-10-17T16:04:18.896Z,100.00
2022-10-17T16:06:45.568Z,100.00
2022-10-17T16:09:12.210Z,100.00
2022-10-17T16:11:43.268Z,100.00
2022-10-17T16:14:16.517Z,100.00
2022-10-17T16:16:43.396Z,100.00
2022-10-17T16:19:10.004Z,100.00
2022-10-17T16:21:38.182Z,100.00
2022-10-17T16:24:04.997Z,100.00
2022-10-17T16:26:31.794Z,100.00
2022-10-17T16:29:02.734Z,100.00
2022-10-17T16:31:34.651Z,100.00
2022-10-17T16:34:02.368Z,100.00
2022-10-17T16:36:28.974Z,100.00
2022-10-17T16:38:55.716Z,100.00
2022-10-17T16:41:30.147Z,100.00
2022-10-17T16:43:58.095Z,100.00
2022-10-17T16:46:25.723Z,100.00
2022-10-17T16:48:52.503Z,100.00
2022-10-17T16:51:20.091Z,100.00
2022-10-17T16:53:47.431Z,100.00
2022-10-17T16:56:15.651Z,100.00
2022-10-17T16:58:42.632Z,100.00
2022-10-17T17:01:10.749Z,100.00
2022-10-17T17:03:38.517Z,100.00
2022-10-17T17:06:06.612Z,100.00
2022-10-17T17:08:33.967Z,100.00
2022-10-17T17:11:00.502Z,100.00
2022-10-17T17:13:28.156Z,100.00
2022-10-17T17:16:02.246Z,100.00
2022-10-17T17:18:28.854Z,100.00
2022-10-17T17:21:02.308Z,100.00
2022-10-17T17:23:29.618Z,100.00
2022-10-17T17:26:00.436Z,100.00
2022-10-17T17:28:27.910Z,100.00
2022-10-17T17:30:55.238Z,100.00
2022-10-17T17:33:22.887Z,100.00
2022-10-17T17:35:55.134Z,100.00
2022-10-17T17:38:21.697Z,100.00
2022-10-17T17:40:50.749Z,100.00
2022-10-17T17:43:18.272Z,100.00
2022-10-17T17:45:44.802Z,100.00
2022-10-17T17:48:12.311Z,100.00
2022-10-17T17:50:40.227Z,100.00
2022-10-17T17:53:07.522Z,100.00
2022-10-17T17:55:34.448Z,100.00
2022-10-17T17:58:01.102Z,100.00
2022-10-17T18:00:27.764Z,100.00
2022-10-17T18:02:54.534Z,100.00
2022-10-17T18:05:21.144Z,100.00
2022-10-17T18:07:47.965Z,100.00
2022-10-17T18:12:42.231Z,100.00
2022-10-17T18:15:09.045Z,100.00
2022-10-17T18:17:35.611Z,100.00
2022-10-17T18:20:03.513Z,100.00
2022-10-17T18:22:30.443Z,100.00
2022-10-17T18:24:57.352Z,100.00
2022-10-17T18:27:23.953Z,100.00
2022-10-17T18:29:51.225Z,100.00
2022-10-17T18:32:17.916Z,100.00
2022-10-17T18:34:44.649Z,100.00
2022-10-17T18:37:11.376Z,100.00
2022-10-17T18:39:37.975Z,100.00
2022-10-17T18:42:04.540Z,100.00
2022-10-17T18:44:31.274Z,100.00
2022-10-17T18:47:02.946Z,100.00
2022-10-17T18:49:31.068Z,100.00
2022-10-17T18:51:57.708Z,100.00
2022-10-17T18:54:24.503Z,100.00
2022-10-17T18:56:52.511Z,100.00
2022-10-17T18:59:19.904Z,100.00
2022-10-17T19:01:46.990Z,100.00
2022-10-17T19:04:13.903Z,100.00
2022-10-17T19:06:41.076Z,100.00
2022-10-17T19:09:08.435Z,100.00
2022-10-17T19:11:36.200Z,100.00
2022-10-17T19:14:04.222Z,100.00
2022-10-17T19:16:32.712Z,100.00
2022-10-17T19:19:01.924Z,100.00
2022-10-17T19:21:28.680Z,100.00
2022-10-17T19:23:56.842Z,100.00
2022-10-17T19:26:23.875Z,100.00
2022-10-17T19:28:53.460Z,100.00
2022-10-17T19:31:26.264Z,100.00
2022-10-17T19:33:53.598Z,100.00
2022-10-17T19:36:21.550Z,100.00
2022-10-17T19:38:48.628Z,100.00
2022-10-17T19:41:16.155Z,100.00
2022-10-17T19:43:43.480Z,100.00
2022-10-17T19:46:14.719Z,100.00
2022-10-17T19:48:41.586Z,100.00
2022-10-17T19:51:08.855Z,100.00
2022-10-17T19:53:35.384Z,100.00
2022-10-17T19:56:02.236Z,100.00
2022-10-17T19:58:28.945Z,100.00
2022-10-17T20:00:57.213Z,100.00
2022-10-17T20:03:24.973Z,100.00
2022-10-17T20:05:51.797Z,100.00
2022-10-17T20:08:18.489Z,100.00
2022-10-17T20:10:46.089Z,100.00
2022-10-17T20:13:13.461Z,100.00
2022-10-17T20:15:40.447Z,100.00
2022-10-17T20:18:07.326Z,100.00
2022-10-17T20:20:34.856Z,100.00
2022-10-17T20:23:02.144Z,100.00
2022-10-17T20:25:28.764Z,100.00
2022-10-17T20:27:55.318Z,100.00
2022-10-17T20:30:21.916Z,100.00
2022-10-17T20:32:48.508Z,100.00
2022-10-17T20:35:15.117Z,100.00
2022-10-17T20:37:42.807Z,100.00
2022-10-17T20:40:34.180Z,100.00
2022-10-17T20:42:56.525Z,100.00
2022-10-17T20:45:37.379Z,100.00
2022-10-17T20:48:14.811Z,100.00
2022-10-17T20:50:42.242Z,100.00
2022-10-17T20:53:35.009Z,100.00
2022-10-17T20:56:06.328Z,100.00
2022-10-17T20:58:33.166Z,100.00
2022-10-17T21:01:04.518Z,100.00
2022-10-17T21:03:31.167Z,100.00
2022-10-17T21:05:57.762Z,100.00
2022-10-17T21:08:24.328Z,100.00
2022-10-17T21:10:50.887Z,100.00
2022-10-17T21:13:17.462Z,100.00
2022-10-17T21:15:44.053Z,100.00
2022-10-17T21:18:10.643Z,100.00
2022-10-17T21:20:37.752Z,100.00
2022-10-17T21:23:04.306Z,100.00
2022-10-17T21:25:30.891Z,100.00
2022-10-17T21:27:57.425Z,100.00
2022-10-17T21:30:23.990Z,100.00
2022-10-17T21:32:53.314Z,100.00
2022-10-17T21:35:20.090Z,100.00
2022-10-17T21:37:46.713Z,100.00
2022-10-17T21:40:13.445Z,100.00
2022-10-17T21:42:40.037Z,100.00
2022-10-17T21:45:15.005Z,100.00
2022-10-17T21:47:54.935Z,100.00
2022-10-17T21:50:27.724Z,100.00
2022-10-17T21:52:54.289Z,100.00
2022-10-17T21:55:20.837Z,100.00
2022-10-17T21:57:47.722Z,100.00
2022-10-17T22:00:14.439Z,100.00
2022-10-17T22:02:41.016Z,100.00
2022-10-17T22:05:07.774Z,100.00
2022-10-17T22:07:34.371Z,100.00
2022-10-17T22:10:00.953Z,100.00
2022-10-17T22:12:27.740Z,100.00
2022-10-17T22:14:54.399Z,100.00
2022-10-17T22:17:20.951Z,100.00
2022-10-17T22:19:47.507Z,100.00
2022-10-17T22:22:14.096Z,100.00
2022-10-17T22:24:40.664Z,100.00
2022-10-17T22:27:09.767Z,100.00
2022-10-17T22:29:36.672Z,100.00
2022-10-17T22:32:03.237Z,100.00
2022-10-17T22:34:30.179Z,100.00
2022-10-17T22:36:56.730Z,100.00
2022-10-17T22:39:23.316Z,100.00
2022-10-17T22:41:49.935Z,100.00
2022-10-17T22:44:16.466Z,100.00
2022-10-17T22:46:43.034Z,100.00
2022-10-17T22:49:09.636Z,100.00
2022-10-17T22:51:36.289Z,100.00
2022-10-17T22:54:02.947Z,100.00
2022-10-17T22:56:29.580Z,100.00
2022-10-17T22:58:56.128Z,100.00
2022-10-17T23:01:23.454Z,100.00
2022-10-17T23:03:50.824Z,100.00
2022-10-17T23:06:17.451Z,100.00
2022-10-17T23:08:44.337Z,100.00
2022-10-17T23:11:11.123Z,100.00
2022-10-17T23:13:38.106Z,100.00
2022-10-17T23:16:04.976Z,100.00
2022-10-17T23:21:03.058Z,100.00
2022-10-17T23:23:29.602Z,100.00
2022-10-17T23:26:02.697Z,100.00
2022-10-17T23:28:29.355Z,100.00
2022-10-17T23:30:55.974Z,100.00
2022-10-17T23:33:22.527Z,100.00
2022-10-17T23:35:49.095Z,100.00
2022-10-17T23:38:15.611Z,100.00
2022-10-17T23:40:42.272Z,100.00
2022-10-17T23:43:08.823Z,100.00
2022-10-17T23:45:37.221Z,100.00
2022-10-17T23:48:04.738Z,100.00
2022-10-17T23:50:31.315Z,100.00
2022-10-17T23:52:57.892Z,100.00
2022-10-17T23:55:24.510Z,100.00
2022-10-17T23:57:51.061Z,100.00
